• Join FlightAware (Why Join?)
  • Login
  • US Flag 
05:14AM EST


 

Airport Tracker/Info


-or-


 

Live Flight TrackerFlight Track Log ✈ OPT429 ✈ 05-Jul-2014 ✈ KTHV - KHPN

Flight Track Log - Related Links

Times and Time Zones

All times are in EDT time to prevent confusion due to time zone crossing. See the OPT429 flight status page for this flight to view local times or setup timezone preferences in your user account.

Time Position Orientation Groundspeed Altitude Reporting Facility
EDT Latitude Longitude Course Direction KTS MPH feet Rate Location/Type
02:16PM 39.9811 -76.9044 90° East 209 241 2,900  Level New York Center
02:17PM 40.0144 -76.8639 43° Northeast 180 207 6,000 3,120 Climbing New York Center
02:18PM 40.0097 -76.7553 93° East 235 270 9,200 3,060 Climbing New York Center
02:19PM 40.0061 -76.6600 93° East 267 307 12,200 2,400 Climbing New York Center
02:20PM 40.0836 -76.6094 27° Northeast 236 272 14,000 840 Climbing New York Center
02:21PM 40.1506 -76.5608 29° Northeast 270 311 14,000  Level New York Center
02:22PM 39.9167 -75.8655 90° East  Level FlightAware Approximate
02:22PM 40.2267 -76.4964 33° Northeast 293 337 14,000  Level New York Center
02:23PM 40.3003 -76.4400 30° Northeast 298 343 15,000 1,860 Climbing New York Center
02:24PM 40.3742 -76.3806 31° Northeast 308 354 17,800 2,160 Climbing New York Center
02:25PM 40.4411 -76.3289 30° Northeast 314 361 19,500 1,560 Climbing New York Center
02:26PM 40.5256 -76.2619 31° Northeast 321 369 21,000 720 Climbing New York Center
02:27PM 40.6167 -76.1872 32° Northeast 353 406 21,000  Level New York Center
02:28PM 40.7114 -76.1153 30° Northeast 376 433 21,000  Level New York Center
02:29PM 40.8064 -76.0431 30° Northeast 389 448 21,000  Level New York Center
02:30PM 40.9014 -75.9708 30° Northeast 389 448 21,000  Level New York Center
02:31PM 41.0050 -75.8881 31° Northeast 399 459 21,000  Level New York Center
02:32PM 41.0997 -75.8153 30° Northeast 394 453 21,000  Level New York Center
02:33PM 41.1967 -75.7369 31° Northeast 394 453 21,000  Level New York Center
02:34PM 41.2978 -75.6617 29° Northeast 394 453 21,000  Level New York Center
02:36PM 41.4889 -75.5103 31° Northeast 405 466 21,000  Level Boston Center
02:37PM 41.5822 -75.4356 31° Northeast 399 459 21,000  Level Boston Center
02:38PM 41.6756 -75.3619 30° Northeast 393 452 21,000  Level Boston Center
02:39PM 41.7683 -75.2875 31° Northeast 393 452 21,000  Level Boston Center
02:40PM 41.8797 -75.1986 31° Northeast 392 451 21,000 -120 Level Boston Center
02:41PM 41.9719 -75.1208 32° Northeast 390 449 20,800 -660 Descending Boston Center
02:42PM 42.0161 -74.9797 67° East 412 474 19,700 -1,200 Descending Boston Center
02:43PM 41.9933 -74.8103 100° East 424 488 18,500 -1,140 Descending Boston Center
02:44PM 41.9586 -74.6556 107° East 431 496 17,500 -780 Descending Boston Center
02:46PM 41.9064 -74.5081 115° Southeast 413 475 17,000 -600 Descending Boston Center
02:47PM 41.8250 -74.3997 135° Southeast 412 474 16,300 -720 Descending Boston Center
02:48PM 41.7775 -74.2653 115° Southeast 402 463 15,600 -900 Descending Boston Center
02:49PM 41.6994 -74.1564 134° Southeast 412 474 14,500 -1,680 Descending Boston Center
02:50PM 41.6083 -74.0619 142° Southeast 382 440 12,300 -2,340 Descending Boston Center
02:51PM 41.5319 -73.9808 142° Southeast 352 405 9,900 -2,040 Descending Boston Center
02:52PM 41.4633 -73.9111 143° Southeast 307 353 8,200 -1,560 Descending Boston Center
02:53PM 41.3981 -73.8467 143° Southeast 296 341 6,700 -1,500 Descending Boston Center
02:54PM 41.3333 -73.7833 144° Southeast 275 316 5,200 -1,560 Descending New York TRACON
02:55PM 41.2667 -73.7333 151° Southeast 276 318 3,600 -1,140 Descending New York TRACON
02:56PM 41.2000 -73.6667 143° Southeast 262 302 3,000 -300 Descending New York TRACON
02:57PM 41.1500 -73.6167 143° Southeast 250 288 3,000 -120 Level New York TRACON
02:58PM 41.1000 -73.5667 143° Southeast 240 276 2,800 -360 Descending New York TRACON
02:59PM 41.0333 -73.5333 159° South 245 282 2,300 -360 Descending New York TRACON
03:00PM 40.9833 -73.5833 217° Southwest 231 266 2,100 -300 Descending New York TRACON
03:01PM 41.0000 -73.6500 288° West 208 239 1,800 -600 Descending New York TRACON
03:02PM 41.0333 -73.6833 323° Northwest 142 163 1,000 -840 Descending New York TRACON
03:05PM 41.0667 -73.7000 246° West  Level FlightAware Approximate